createdAt,value
2023-03-05T00:02:24.530Z,1.88
2023-03-05T00:05:30.147Z,3.13
2023-03-05T00:08:35.447Z,3.03
2023-03-05T00:11:40.553Z,9.82
2023-03-05T00:14:45.574Z,3.90
2023-03-05T00:17:53.640Z,1.73
2023-03-05T00:20:58.932Z,2.50
2023-03-05T00:24:04.920Z,1.83
2023-03-05T00:27:10.099Z,3.83
2023-03-05T00:30:16.312Z,2.28
2023-03-05T00:33:24.187Z,3.25
2023-03-05T00:36:29.933Z,2.72
2023-03-05T00:39:35.204Z,2.10
2023-03-05T00:42:41.613Z,1.98
2023-03-05T00:45:46.860Z,1.92
2023-03-05T00:48:54.691Z,2.15
2023-03-05T00:51:59.915Z,3.25
2023-03-05T00:55:05.485Z,2.25
2023-03-05T00:58:10.713Z,1.88
2023-03-05T01:01:16.152Z,2.92
2023-03-05T01:04:24.306Z,2.80
2023-03-05T01:07:29.548Z,2.22
2023-03-05T01:10:34.886Z,2.10
2023-03-05T01:13:40.392Z,3.05
2023-03-05T01:16:45.441Z,2.65
2023-03-05T01:19:53.543Z,2.95
2023-03-05T01:22:59.222Z,5.00
2023-03-05T01:26:04.854Z,2.90
2023-03-05T01:29:09.881Z,2.90
2023-03-05T01:32:14.934Z,4.30
2023-03-05T01:35:23.906Z,3.15
2023-03-05T01:38:29.066Z,3.20
2023-03-05T01:41:34.593Z,1.98
2023-03-05T01:44:39.757Z,2.17
2023-03-05T01:47:45.318Z,1.33
2023-03-05T01:50:53.247Z,3.13
2023-03-05T01:54:00.097Z,3.17
2023-03-05T01:57:09.932Z,2.33
2023-03-05T02:00:17.819Z,3.90
2023-03-05T02:06:31.245Z,2.13
2023-03-05T02:09:36.765Z,19.23
2023-03-05T02:12:42.403Z,2.10
2023-03-05T02:16:07.690Z,3.40
2023-03-05T02:19:14.329Z,2.42
2023-03-05T02:22:22.884Z,2.47
2023-03-05T02:25:29.119Z,4.07
2023-03-05T02:28:35.364Z,3.38
2023-03-05T02:31:41.163Z,2.00
2023-03-05T02:34:46.276Z,3.08
2023-03-05T02:37:54.336Z,3.78
2023-03-05T02:40:59.504Z,4.22
2023-03-05T02:44:05.164Z,4.18
2023-03-05T02:47:10.787Z,5.60
2023-03-05T02:50:16.508Z,4.03
2023-03-05T02:53:24.188Z,5.47
2023-03-05T02:56:29.798Z,5.60
2023-03-05T02:59:34.800Z,4.30
2023-03-05T03:02:40.410Z,3.53
2023-03-05T03:05:45.784Z,2.97
2023-03-05T03:08:54.102Z,3.47
2023-03-05T03:15:04.094Z,7.68
2023-03-05T03:18:09.281Z,3.03
2023-03-05T03:21:19.994Z,3.50
2023-03-05T03:24:27.805Z,3.03
2023-03-05T03:27:33.005Z,4.47
2023-03-05T03:30:38.091Z,2.63
2023-03-05T03:33:43.158Z,5.70
2023-03-05T03:36:49.672Z,2.25
2023-03-05T03:39:57.405Z,4.63
2023-03-05T03:43:02.644Z,5.47
2023-03-05T03:46:09.007Z,2.38
2023-03-05T03:49:17.573Z,3.55
2023-03-05T03:55:31.006Z,3.03
2023-03-05T03:58:36.532Z,4.93
2023-03-05T04:01:41.838Z,1.73
2023-03-05T04:04:47.638Z,4.65
2023-03-05T04:07:52.936Z,4.10
2023-03-05T04:11:00.873Z,2.35
2023-03-05T04:14:06.323Z,1.35
2023-03-05T04:17:12.094Z,1.65
2023-03-05T04:20:17.366Z,2.63
2023-03-05T04:23:23.225Z,2.05
2023-03-05T04:26:31.179Z,3.13
2023-03-05T04:29:36.603Z,6.57
2023-03-05T04:32:41.661Z,2.63
2023-03-05T04:35:46.991Z,4.10
2023-03-05T04:38:52.036Z,1.60
2023-03-05T04:42:00.034Z,2.65
2023-03-05T04:45:05.136Z,1.45
2023-03-05T04:48:11.214Z,1.88
2023-03-05T04:51:16.478Z,4.05
2023-03-05T04:54:21.824Z,1.05
2023-03-05T04:57:29.650Z,4.35
2023-03-05T05:00:34.745Z,2.35
2023-03-05T05:03:40.010Z,1.02
2023-03-05T05:06:45.186Z,6.03
2023-03-05T05:09:50.301Z,1.80
2023-03-05T05:12:58.228Z,3.05
2023-03-05T05:16:03.655Z,2.13
2023-03-05T05:19:08.818Z,2.53
2023-03-05T05:22:13.920Z,2.10
2023-03-05T05:25:19.491Z,4.20
2023-03-05T05:28:27.276Z,3.05
2023-03-05T05:31:32.860Z,2.42
2023-03-05T05:34:38.322Z,0.93
2023-03-05T05:37:43.937Z,1.90
2023-03-05T05:40:49.168Z,1.25
2023-03-05T05:43:57.722Z,3.75
2023-03-05T05:50:08.267Z,2.50
2023-03-05T05:53:13.611Z,4.25
2023-03-05T05:56:19.798Z,4.55
2023-03-05T05:59:27.544Z,1.95
2023-03-05T06:02:32.880Z,2.60
2023-03-05T06:05:37.979Z,2.47
2023-03-05T06:08:43.507Z,2.25
2023-03-05T06:11:48.771Z,3.28
2023-03-05T06:14:56.957Z,4.35
2023-03-05T06:18:02.341Z,4.32
2023-03-05T06:21:08.752Z,1.75
2023-03-05T06:24:14.030Z,1.85
2023-03-05T06:27:19.312Z,2.17
2023-03-05T06:30:27.544Z,3.30
2023-03-05T06:33:32.862Z,4.15
2023-03-05T06:36:38.467Z,1.55
2023-03-05T06:39:43.784Z,2.72
2023-03-05T06:42:49.146Z,3.63
2023-03-05T06:46:04.666Z,2.83
2023-03-05T06:49:10.293Z,6.20
2023-03-05T06:52:16.170Z,7.20
2023-03-05T06:55:21.618Z,4.90
2023-03-05T06:58:27.222Z,3.25
2023-03-05T07:01:35.215Z,7.05
2023-03-05T07:04:40.875Z,4.40
2023-03-05T07:07:46.035Z,6.43
2023-03-05T07:10:51.417Z,7.25
2023-03-05T07:13:56.636Z,7.05
2023-03-05T07:17:04.607Z,4.75
2023-03-05T07:20:10.964Z,5.55
2023-03-05T07:23:15.987Z,9.15
2023-03-05T07:26:21.325Z,5.43
2023-03-05T07:29:26.693Z,4.40
2023-03-05T07:32:34.742Z,6.15
2023-03-05T07:35:42.806Z,6.50
2023-03-05T07:38:48.360Z,4.20
2023-03-05T07:41:53.634Z,4.97
2023-03-05T07:45:07.055Z,5.53
2023-03-05T07:48:15.996Z,14.75
2023-03-05T07:51:22.128Z,7.43
2023-03-05T07:54:27.367Z,9.45
2023-03-05T07:57:32.610Z,5.90
2023-03-05T08:00:38.109Z,8.95
2023-03-05T08:03:46.420Z,12.15
2023-03-05T08:06:51.929Z,9.52
2023-03-05T08:09:57.340Z,9.75
2023-03-05T08:13:02.407Z,8.20
2023-03-05T08:16:08.934Z,6.05
2023-03-05T08:19:16.829Z,7.20
2023-03-05T08:22:22.003Z,8.68
2023-03-05T08:25:27.261Z,6.07
2023-03-05T08:28:34.296Z,7.47
2023-03-05T08:31:40.834Z,7.95
2023-03-05T08:34:48.796Z,4.97
2023-03-05T08:37:54.433Z,10.65
2023-03-05T08:40:59.533Z,5.57
2023-03-05T08:44:04.905Z,5.80
2023-03-05T08:47:10.158Z,11.32
2023-03-05T08:50:18.414Z,8.90
2023-03-05T08:53:23.743Z,9.77
2023-03-05T08:56:31.674Z,6.45
2023-03-05T08:59:36.952Z,9.60
2023-03-05T09:02:42.358Z,5.25
2023-03-05T09:05:50.308Z,6.82
2023-03-05T09:08:55.795Z,5.75
2023-03-05T09:12:01.258Z,6.68
2023-03-05T09:15:08.207Z,6.18
2023-03-05T09:18:13.527Z,6.18
2023-03-05T09:21:21.676Z,5.70
2023-03-05T09:24:26.927Z,6.13
2023-03-05T09:27:32.446Z,6.85
2023-03-05T09:30:37.561Z,10.02
2023-03-05T09:33:42.798Z,9.60
2023-03-05T09:36:50.739Z,8.35
2023-03-05T09:39:56.298Z,11.27
2023-03-05T09:43:05.534Z,8.57
2023-03-05T09:46:18.370Z,17.73
2023-03-05T09:49:27.089Z,7.00
2023-03-05T09:52:40.481Z,9.63
2023-03-05T09:55:48.702Z,9.80
2023-03-05T09:58:56.331Z,13.68
2023-03-05T10:02:04.496Z,11.20
2023-03-05T10:05:15.856Z,10.95
2023-03-05T10:08:25.424Z,10.35
2023-03-05T10:11:45.876Z,10.13
2023-03-05T10:14:52.000Z,12.13
2023-03-05T10:18:02.436Z,11.68
2023-03-05T10:21:08.692Z,12.10
2023-03-05T10:24:20.258Z,10.70
2023-03-05T10:27:33.362Z,12.20
2023-03-05T10:30:56.225Z,9.57
2023-03-05T10:34:09.727Z,10.43
2023-03-05T10:37:30.258Z,10.57
2023-03-05T10:40:39.408Z,12.95
2023-03-05T10:43:49.805Z,12.55
2023-03-05T10:46:56.056Z,11.13
2023-03-05T10:50:02.098Z,11.25
2023-03-05T10:53:14.370Z,11.20
2023-03-05T10:56:22.861Z,10.80
2023-03-05T10:59:28.208Z,14.18
2023-03-05T11:02:33.546Z,8.73
2023-03-05T11:05:49.216Z,9.38
2023-03-05T11:08:54.219Z,9.63
2023-03-05T11:12:13.112Z,8.68
2023-03-05T11:15:29.412Z,11.45
2023-03-05T11:18:35.740Z,10.63
2023-03-05T11:21:41.091Z,9.57
2023-03-05T11:24:47.018Z,7.63
2023-03-05T11:27:57.271Z,6.95
2023-03-05T11:31:07.823Z,9.18
2023-03-05T11:34:24.864Z,8.27
2023-03-05T11:37:32.095Z,5.70
2023-03-05T11:40:38.807Z,8.13
2023-03-05T11:43:47.211Z,7.60
2023-03-05T11:49:59.070Z,5.78
2023-03-05T11:53:07.689Z,6.60
2023-03-05T11:56:19.016Z,9.35
2023-03-05T11:59:29.054Z,7.82
2023-03-05T12:02:34.437Z,10.35
2023-03-05T12:05:40.835Z,8.43
2023-03-05T12:08:48.665Z,6.63
2023-03-05T12:11:55.430Z,7.90
2023-03-05T12:15:07.805Z,7.90
2023-03-05T12:18:27.264Z,8.60
2023-03-05T12:21:37.205Z,9.50
2023-03-05T12:24:43.130Z,7.25
2023-03-05T12:27:48.462Z,11.88
2023-03-05T12:31:01.272Z,6.40
2023-03-05T12:34:27.244Z,8.10
2023-03-05T12:37:53.382Z,8.23
2023-03-05T12:41:13.081Z,7.10
2023-03-05T12:44:22.695Z,7.38
2023-03-05T12:47:30.470Z,7.32
2023-03-05T12:50:52.897Z,6.88
2023-03-05T12:53:58.259Z,5.70
2023-03-05T12:57:04.648Z,7.57
2023-03-05T13:00:14.110Z,8.90
2023-03-05T13:03:24.128Z,8.32
2023-03-05T13:06:30.778Z,6.72
2023-03-05T13:09:36.982Z,8.85
2023-03-05T13:12:42.459Z,9.88
2023-03-05T13:15:49.197Z,8.32
2023-03-05T13:18:57.361Z,8.55
2023-03-05T13:22:03.918Z,9.35
2023-03-05T13:25:20.744Z,8.57
2023-03-05T13:28:26.183Z,10.20
2023-03-05T13:31:31.624Z,7.40
2023-03-05T13:34:47.671Z,10.52
2023-03-05T13:37:53.107Z,8.43
2023-03-05T13:41:09.424Z,8.55
2023-03-05T13:44:23.076Z,9.57
2023-03-05T13:47:31.140Z,8.25
2023-03-05T13:50:39.687Z,11.57
2023-03-05T13:56:53.457Z,11.63
2023-03-05T13:59:58.785Z,8.43
2023-03-05T14:03:05.573Z,5.40
2023-03-05T14:06:15.614Z,10.20
2023-03-05T14:09:22.706Z,17.25
2023-03-05T14:12:31.481Z,9.02
2023-03-05T14:15:37.839Z,9.10
2023-03-05T14:18:54.992Z,8.57
2023-03-05T14:22:03.083Z,6.10
2023-03-05T14:25:09.291Z,8.68
2023-03-05T14:28:24.642Z,6.63
2023-03-05T14:31:30.938Z,6.97
2023-03-05T14:34:38.451Z,7.35
2023-03-05T14:37:49.302Z,5.72
2023-03-05T14:40:54.783Z,6.13
2023-03-05T14:44:00.060Z,8.60
2023-03-05T14:47:05.454Z,9.85
2023-03-05T14:50:11.152Z,6.68
2023-03-05T14:53:20.208Z,8.52
2023-03-05T14:56:26.692Z,7.05
2023-03-05T14:59:32.035Z,8.18
2023-03-05T15:02:37.221Z,5.80
2023-03-05T15:05:42.955Z,6.47
2023-03-05T15:08:50.911Z,8.70
2023-03-05T15:11:56.109Z,6.60
2023-03-05T15:15:01.301Z,8.00
2023-03-05T15:18:08.489Z,9.20
2023-03-05T15:21:13.842Z,9.02
2023-03-05T15:24:21.725Z,10.93
2023-03-05T15:27:26.988Z,13.38
2023-03-05T15:30:33.832Z,9.52
2023-03-05T15:33:39.338Z,8.98
2023-03-05T15:36:44.488Z,9.50
2023-03-05T15:39:52.553Z,9.38
2023-03-05T15:42:58.307Z,7.18
2023-03-05T15:46:03.594Z,10.15
2023-03-05T15:49:09.075Z,7.72
2023-03-05T15:52:14.493Z,10.57
2023-03-05T15:55:22.815Z,7.22
2023-03-05T15:58:28.290Z,6.32
2023-03-05T16:01:33.433Z,7.05
2023-03-05T16:04:38.815Z,8.38
2023-03-05T16:07:46.617Z,9.43
2023-03-05T16:10:54.713Z,11.98
2023-03-05T16:14:02.140Z,9.55
2023-03-05T16:17:07.759Z,8.10
2023-03-05T16:20:14.828Z,8.50
2023-03-05T16:23:20.291Z,7.53
2023-03-05T16:26:28.024Z,6.68
2023-03-05T16:29:33.302Z,11.02
2023-03-05T16:32:39.585Z,9.35
2023-03-05T16:35:45.076Z,9.65
2023-03-05T16:38:50.712Z,10.63
2023-03-05T16:41:58.917Z,11.88
2023-03-05T16:45:04.213Z,11.18
2023-03-05T16:48:09.777Z,11.93
2023-03-05T16:51:15.648Z,8.57
2023-03-05T16:54:22.250Z,13.15
2023-03-05T16:57:30.232Z,12.68
2023-03-05T17:00:35.835Z,13.40
2023-03-05T17:03:43.651Z,14.48
2023-03-05T17:06:49.593Z,12.15
2023-03-05T17:09:55.008Z,11.20
2023-03-05T17:13:03.037Z,12.43
2023-03-05T17:16:09.116Z,13.90
2023-03-05T17:19:14.221Z,16.60
2023-03-05T17:22:19.398Z,11.90
2023-03-05T17:25:24.778Z,14.90
2023-03-05T17:28:32.663Z,16.95
2023-03-05T17:31:38.249Z,12.40
2023-03-05T17:34:43.617Z,10.52
2023-03-05T17:40:57.395Z,11.75
2023-03-05T17:44:05.272Z,14.23
2023-03-05T17:47:10.411Z,9.00
2023-03-05T17:50:16.073Z,10.25
2023-03-05T17:53:21.337Z,11.00
2023-03-05T17:56:26.948Z,10.85
2023-03-05T17:59:34.753Z,9.70
2023-03-05T18:02:40.073Z,10.68
2023-03-05T18:05:45.193Z,12.40
2023-03-05T18:08:50.637Z,9.18
2023-03-05T18:11:56.008Z,8.93
2023-03-05T18:15:04.115Z,11.98
2023-03-05T18:18:09.499Z,13.52
2023-03-05T18:21:14.871Z,8.10
2023-03-05T18:24:20.050Z,9.18
2023-03-05T18:27:25.720Z,10.43
2023-03-05T18:30:34.043Z,10.38
2023-03-05T18:33:39.522Z,10.32
2023-03-05T18:36:44.808Z,9.40
2023-03-05T18:39:50.208Z,8.57
2023-03-05T18:42:55.343Z,11.65
2023-03-05T18:46:05.232Z,10.88
2023-03-05T18:49:10.544Z,11.38
2023-03-05T18:52:15.900Z,10.55
2023-03-05T18:55:21.773Z,8.13
2023-03-05T18:58:26.800Z,13.70
2023-03-05T19:01:34.684Z,12.25
2023-03-05T19:04:39.811Z,12.83
2023-03-05T19:07:45.981Z,13.63
2023-03-05T19:10:51.388Z,12.43
2023-03-05T19:13:57.243Z,14.48
2023-03-05T19:17:05.514Z,15.95
2023-03-05T19:20:11.613Z,15.70
2023-03-05T19:23:17.081Z,15.65
2023-03-05T19:26:22.164Z,17.60
2023-03-05T19:29:28.456Z,15.52
2023-03-05T19:32:36.435Z,18.70
2023-03-05T19:35:43.849Z,16.75
2023-03-05T19:38:49.736Z,16.80
2023-03-05T19:41:55.245Z,19.00
2023-03-05T19:45:00.748Z,20.05
2023-03-05T19:48:11.202Z,17.58
2023-03-05T19:51:17.353Z,16.75
2023-03-05T19:54:23.359Z,16.33
2023-03-05T19:57:28.609Z,16.92
2023-03-05T20:00:33.934Z,15.48
2023-03-05T20:03:41.713Z,16.92
2023-03-05T20:06:47.306Z,27.92
2023-03-05T20:09:55.590Z,16.35
2023-03-05T20:16:06.374Z,16.50
2023-03-05T20:19:20.259Z,14.70
2023-03-05T20:22:25.527Z,11.25
2023-03-05T20:25:30.743Z,14.13
2023-03-05T20:28:36.560Z,17.38
2023-03-05T20:31:42.603Z,15.65
2023-03-05T20:34:53.139Z,14.82
2023-03-05T20:38:25.664Z,17.02
2023-03-05T20:41:30.812Z,16.00
2023-03-05T20:44:36.205Z,13.27
2023-03-05T20:47:46.542Z,16.40
2023-03-05T20:50:54.462Z,15.88
2023-03-05T20:54:02.801Z,13.18
2023-03-05T20:57:07.823Z,14.60
2023-03-05T21:00:13.943Z,14.13
2023-03-05T21:03:19.608Z,13.75
2023-03-05T21:06:27.873Z,14.32
2023-03-05T21:09:33.235Z,15.38
2023-03-05T21:12:38.385Z,14.18
2023-03-05T21:15:44.198Z,15.50
2023-03-05T21:18:49.565Z,18.50
2023-03-05T21:21:57.945Z,17.80
2023-03-05T21:25:16.095Z,14.40
2023-03-05T21:28:21.182Z,13.32
2023-03-05T21:31:26.580Z,12.20
2023-03-05T21:34:32.088Z,13.02
2023-03-05T21:37:42.713Z,13.85
2023-03-05T21:40:50.211Z,13.85
2023-03-05T21:43:55.364Z,14.43
2023-03-05T21:47:00.590Z,16.75
2023-03-05T21:50:05.994Z,11.63
2023-03-05T21:53:13.752Z,14.88
2023-03-05T21:56:31.184Z,15.50
2023-03-05T21:59:36.714Z,14.53
2023-03-05T22:02:42.173Z,15.00
2023-03-05T22:05:47.686Z,16.48
2023-03-05T22:08:55.496Z,9.27
2023-03-05T22:12:02.244Z,11.73
2023-03-05T22:15:27.490Z,14.60
2023-03-05T22:18:33.465Z,12.13
2023-03-05T22:21:38.482Z,10.80
2023-03-05T22:24:46.537Z,11.90
2023-03-05T22:27:51.823Z,13.52
2023-03-05T22:30:57.455Z,9.43
2023-03-05T22:34:02.928Z,8.55
2023-03-05T22:37:08.277Z,27.77
2023-03-05T22:40:17.442Z,8.82
2023-03-05T22:43:23.359Z,9.38
2023-03-05T22:46:29.662Z,9.88
2023-03-05T22:49:35.568Z,9.77
2023-03-05T22:52:40.684Z,8.10
2023-03-05T22:55:48.829Z,9.32
2023-03-05T22:58:53.892Z,9.90
2023-03-05T23:01:59.235Z,9.77
2023-03-05T23:05:04.309Z,12.88
2023-03-05T23:08:09.926Z,9.55
2023-03-05T23:11:17.577Z,8.95
2023-03-05T23:14:22.826Z,11.68
2023-03-05T23:17:28.054Z,9.10
2023-03-05T23:20:34.456Z,8.93
2023-03-05T23:23:39.653Z,9.90
2023-03-05T23:26:48.009Z,8.88
2023-03-05T23:30:20.097Z,8.38
2023-03-05T23:33:25.986Z,10.00
2023-03-05T23:36:30.983Z,10.10
2023-03-05T23:39:36.253Z,7.80
2023-03-05T23:42:44.019Z,8.88
2023-03-05T23:45:51.054Z,14.15
2023-03-05T23:48:56.206Z,8.55
2023-03-05T23:52:01.809Z,8.02
2023-03-05T23:55:07.453Z,11.90
2023-03-05T23:58:15.307Z,8.45
